Zim Chicago — A8SI9 — position and weather

sailwx.info

Track history (hours):
 
Tides and Currents Weather Stations Pressure Air Temp Water Temp Dewpoint Dewpoint Depression Visibility Wind Speed Wind Dir Waves Ship Positions

Zim Chicago

Last reported at 2016-May-24 08:31 UTC. Time now 2016-May-31 05:51 UTC.
Position N 01°55' E 102°19'.

Length 334 m; draft 11.4 m.

Type: Cargo ship. MMSI: 636014223.

Date/timePositionNaut miles runAvg speedWind from/ knotsBaromVisibWave heightAir tempDewpointWater temp
2016-May-24 08:31N 01°55' E 102°19'1818.5
2016-May-24 07:33N 01°48' E 102°35'1818.0
2016-May-24 06:33N 01°40' E 102°51'5714.3
2016-May-24 02:33N 01°14' E 103°42'5 5.0
2016-May-24 01:33N 01°17' E 103°46'0 0.0
2016-May-24 00:31N 01°17' E 103°46'0 0.0
2016-May-23 23:28N 01°17' E 103°46'0 0.0
2016-May-23 22:31N 01°17' E 103°46'0 0.0
2016-May-23 21:28N 01°17' E 103°46'0 0.0
2016-May-23 20:28N 01°17' E 103°46'0 0.0
2016-May-23 19:28N 01°17' E 103°46'0 0.0
2016-May-23 18:28N 01°17' E 103°46'0 0.0
2016-May-23 17:31N 01°17' E 103°46'0 0.0
2016-May-23 16:31N 01°17' E 103°46'0 0.0
2016-May-23 15:31N 01°17' E 103°46'0 0.0
2016-May-23 14:31N 01°17' E 103°46'0 0.0
2016-May-23 13:28N 01°17' E 103°46'0 0.0
2016-May-23 12:25N 01°17' E 103°46'0 0.0
2016-May-23 11:33N 01°17' E 103°46'0 0.3
2016-May-23 10:33N 01°17' E 103°45'5 5.5
2016-May-23 09:33N 01°13' E 103°48'1010.3
2016-May-23 08:33N 01°15' E 103°58'  
2016-May-19 20:04N 21°60' E 114°21'713.8
2016-May-19 19:33N 22°07' E 114°21'1712.7
2016-May-19 18:14N 22°16' E 114°06'5 5.7
2016-May-19 17:27N 22°21' E 114°07'0 0.1
2016-May-19 16:30N 22°21' E 114°07'0 0.0
2016-May-19 15:30N 22°21' E 114°07'0 0.0
2016-May-19 14:18N 22°21' E 114°07'0 0.0
2016-May-19 13:33N 22°21' E 114°07'0 0.0
2016-May-19 09:18N 22°21' E 114°07'0 0.0
2016-May-19 08:24N 22°21' E 114°07'0 0.0
2016-May-19 06:20N 22°21' E 114°07'0 0.0
2016-May-19 05:33N 22°21' E 114°07'0 0.0
2016-May-19 04:33N 22°21' E 114°07'4 3.7
2016-May-19 03:33N 22°17' E 114°06'1110.3
2016-May-19 02:32N 22°09' E 114°13'9 9.3
2016-May-19 01:33N 22°08' E 114°23'1010.0
2016-May-19 00:33N 22°16' E 114°30'9 2.7
2016-May-18 21:15N 22°23' E 114°35'0 0.0
2016-May-18 20:30N 22°23' E 114°35'0 0.0
2016-May-18 12:06N 22°23' E 114°35'2 3.6
2016-May-18 11:33N 22°23' E 114°33'19 8.7
2016-May-18 09:22N 22°34' E 114°16'0 0.0
2016-May-18 08:33N 22°34' E 114°16'0 0.0
2016-May-18 06:30N 22°34' E 114°16'0 0.0
2016-May-18 04:31N 22°34' E 114°16'0 0.0
2016-May-18 01:20N 22°34' E 114°16'0 0.0
2016-May-18 00:24N 22°34' E 114°16'15 7.1
2016-May-17 22:19N 22°25' E 114°29'59815.4
2016-May-16 07:31N 29°15' E 122°32'1716.4
2016-May-16 06:30N 29°32' E 122°36'1516.2
2016-May-16 05:33N 29°43' E 122°23'1313.1
2016-May-16 04:33N 29°51' E 122°12'8 8.2
2016-May-16 03:32N 29°54' E 122°03'0 0.3
2016-May-16 02:34N 29°54' E 122°02'0 0.0
2016-May-16 01:33N 29°54' E 122°02'0 0.0
2016-May-16 00:32N 29°54' E 122°02'0 0.0
2016-May-15 23:32N 29°54' E 122°02'0 0.0
2016-May-15 22:33N 29°54' E 122°02'0 0.0
2016-May-15 21:33N 29°54' E 122°02'0 0.0
2016-May-15 20:33N 29°54' E 122°02'0 0.0
2016-May-15 19:33N 29°54' E 122°02'0 0.0
2016-May-15 18:33N 29°54' E 122°02'0 0.0
2016-May-15 17:30N 29°54' E 122°02'0 0.0
2016-May-15 16:33N 29°54' E 122°02'0 0.0
2016-May-15 15:33N 29°54' E 122°02'0 0.0
2016-May-15 14:33N 29°54' E 122°02'0 0.0
2016-May-15 13:30N 29°54' E 122°02'1 0.7
2016-May-15 12:33N 29°54' E 122°03'9 8.5
2016-May-15 11:33N 29°51' E 122°12'1110.6
2016-May-15 10:32N 29°44' E 122°21'7 7.0
2016-May-15 09:33N 29°39' E 122°28'0 0.0
2016-May-15 08:33N 29°39' E 122°28'4 3.9
2016-May-15 07:33N 29°40' E 122°32'1312.2
2016-May-15 06:30N 29°51' E 122°39'3210.7
2016-May-15 03:29N 30°21' E 122°54'1213.3
2016-May-15 02:33N 30°28' E 122°43'1514.0
2016-May-15 01:29N 30°31' E 122°26'1313.0
2016-May-15 00:29N 30°34' E 122°11'7 7.7
2016-May-14 23:33N 30°37' E 122°04'0 0.0
2016-May-14 22:27N 30°37' E 122°04'0 0.0
2016-May-14 21:33N 30°37' E 122°04'0 0.0
2016-May-14 20:33N 30°37' E 122°04'0 0.0
2016-May-14 19:28N 30°37' E 122°04'0 0.0
2016-May-14 18:33N 30°37' E 122°04'0 0.0
2016-May-14 17:33N 30°37' E 122°04'0 0.0
2016-May-14 16:31N 30°37' E 122°04'0 0.0
2016-May-14 15:33N 30°37' E 122°04'0 0.0
2016-May-14 14:33N 30°37' E 122°04'0 0.0
2016-May-14 13:33N 30°37' E 122°04'0 0.0
2016-May-14 12:13N 30°37' E 122°04'0 0.0
2016-May-14 11:22N 30°37' E 122°04'0 0.0
2016-May-14 10:33N 30°37' E 122°04'0 0.0
2016-May-14 09:33N 30°37' E 122°04'0 0.0
2016-May-14 08:33N 30°37' E 122°04'  
Track history (hours):
 
Tides and Currents Weather Stations Pressure Air Temp Water Temp Dewpoint Dewpoint Depression Visibility Wind Speed Wind Dir Waves Ship Positions

Zim Chicago

Last reported at 2016-May-24 08:31 UTC. Time now 2016-May-31 05:51 UTC.
Position N 01°55' E 102°19'.

Length 334 m; draft 11.4 m.

Type: Cargo ship. MMSI: 636014223.

Date/timePositionNaut miles runAvg speedWind from/ knotsBaromVisibWave heightAir tempDewpointWater temp
2016-May-24 08:31N 01°55' E 102°19'1818.5
2016-May-24 07:33N 01°48' E 102°35'1818.0
2016-May-24 06:33N 01°40' E 102°51'5714.3
2016-May-24 02:33N 01°14' E 103°42'5 5.0
2016-May-24 01:33N 01°17' E 103°46'0 0.0
2016-May-24 00:31N 01°17' E 103°46'0 0.0
2016-May-23 23:28N 01°17' E 103°46'0 0.0
2016-May-23 22:31N 01°17' E 103°46'0 0.0
2016-May-23 21:28N 01°17' E 103°46'0 0.0
2016-May-23 20:28N 01°17' E 103°46'0 0.0
2016-May-23 19:28N 01°17' E 103°46'0 0.0
2016-May-23 18:28N 01°17' E 103°46'0 0.0
2016-May-23 17:31N 01°17' E 103°46'0 0.0
2016-May-23 16:31N 01°17' E 103°46'0 0.0
2016-May-23 15:31N 01°17' E 103°46'0 0.0
2016-May-23 14:31N 01°17' E 103°46'0 0.0
2016-May-23 13:28N 01°17' E 103°46'0 0.0
2016-May-23 12:25N 01°17' E 103°46'0 0.0
2016-May-23 11:33N 01°17' E 103°46'0 0.3
2016-May-23 10:33N 01°17' E 103°45'5 5.5
2016-May-23 09:33N 01°13' E 103°48'1010.3
2016-May-23 08:33N 01°15' E 103°58'  
2016-May-19 20:04N 21°60' E 114°21'713.8
2016-May-19 19:33N 22°07' E 114°21'1712.7
2016-May-19 18:14N 22°16' E 114°06'5 5.7
2016-May-19 17:27N 22°21' E 114°07'0 0.1
2016-May-19 16:30N 22°21' E 114°07'0 0.0
2016-May-19 15:30N 22°21' E 114°07'0 0.0
2016-May-19 14:18N 22°21' E 114°07'0 0.0
2016-May-19 13:33N 22°21' E 114°07'0 0.0
2016-May-19 09:18N 22°21' E 114°07'0 0.0
2016-May-19 08:24N 22°21' E 114°07'0 0.0
2016-May-19 06:20N 22°21' E 114°07'0 0.0
2016-May-19 05:33N 22°21' E 114°07'0 0.0
2016-May-19 04:33N 22°21' E 114°07'4 3.7
2016-May-19 03:33N 22°17' E 114°06'1110.3
2016-May-19 02:32N 22°09' E 114°13'9 9.3
2016-May-19 01:33N 22°08' E 114°23'1010.0
2016-May-19 00:33N 22°16' E 114°30'9 2.7
2016-May-18 21:15N 22°23' E 114°35'0 0.0
2016-May-18 20:30N 22°23' E 114°35'0 0.0
2016-May-18 12:06N 22°23' E 114°35'2 3.6
2016-May-18 11:33N 22°23' E 114°33'19 8.7
2016-May-18 09:22N 22°34' E 114°16'0 0.0
2016-May-18 08:33N 22°34' E 114°16'0 0.0
2016-May-18 06:30N 22°34' E 114°16'0 0.0
2016-May-18 04:31N 22°34' E 114°16'0 0.0
2016-May-18 01:20N 22°34' E 114°16'0 0.0
2016-May-18 00:24N 22°34' E 114°16'15 7.1
2016-May-17 22:19N 22°25' E 114°29'59815.4
2016-May-16 07:31N 29°15' E 122°32'1716.4
2016-May-16 06:30N 29°32' E 122°36'1516.2
2016-May-16 05:33N 29°43' E 122°23'1313.1
2016-May-16 04:33N 29°51' E 122°12'8 8.2
2016-May-16 03:32N 29°54' E 122°03'0 0.3
2016-May-16 02:34N 29°54' E 122°02'0 0.0
2016-May-16 01:33N 29°54' E 122°02'0 0.0
2016-May-16 00:32N 29°54' E 122°02'0 0.0
2016-May-15 23:32N 29°54' E 122°02'0 0.0
2016-May-15 22:33N 29°54' E 122°02'0 0.0
2016-May-15 21:33N 29°54' E 122°02'0 0.0
2016-May-15 20:33N 29°54' E 122°02'0 0.0
2016-May-15 19:33N 29°54' E 122°02'0 0.0
2016-May-15 18:33N 29°54' E 122°02'0 0.0
2016-May-15 17:30N 29°54' E 122°02'0 0.0
2016-May-15 16:33N 29°54' E 122°02'0 0.0
2016-May-15 15:33N 29°54' E 122°02'0 0.0
2016-May-15 14:33N 29°54' E 122°02'0 0.0
2016-May-15 13:30N 29°54' E 122°02'1 0.7
2016-May-15 12:33N 29°54' E 122°03'9 8.5
2016-May-15 11:33N 29°51' E 122°12'1110.6
2016-May-15 10:32N 29°44' E 122°21'7 7.0
2016-May-15 09:33N 29°39' E 122°28'0 0.0
2016-May-15 08:33N 29°39' E 122°28'4 3.9
2016-May-15 07:33N 29°40' E 122°32'1312.2
2016-May-15 06:30N 29°51' E 122°39'3210.7
2016-May-15 03:29N 30°21' E 122°54'1213.3
2016-May-15 02:33N 30°28' E 122°43'1514.0
2016-May-15 01:29N 30°31' E 122°26'1313.0
2016-May-15 00:29N 30°34' E 122°11'7 7.7
2016-May-14 23:33N 30°37' E 122°04'0 0.0
2016-May-14 22:27N 30°37' E 122°04'0 0.0
2016-May-14 21:33N 30°37' E 122°04'0 0.0
2016-May-14 20:33N 30°37' E 122°04'0 0.0
2016-May-14 19:28N 30°37' E 122°04'0 0.0
2016-May-14 18:33N 30°37' E 122°04'0 0.0
2016-May-14 17:33N 30°37' E 122°04'0 0.0
2016-May-14 16:31N 30°37' E 122°04'0 0.0
2016-May-14 15:33N 30°37' E 122°04'0 0.0
2016-May-14 14:33N 30°37' E 122°04'0 0.0
2016-May-14 13:33N 30°37' E 122°04'0 0.0
2016-May-14 12:13N 30°37' E 122°04'0 0.0
2016-May-14 11:22N 30°37' E 122°04'0 0.0
2016-May-14 10:33N 30°37' E 122°04'0 0.0
2016-May-14 09:33N 30°37' E 122°04'0 0.0
2016-May-14 08:33N 30°37' E 122°04'  

Dump ship's entire track history